sensor_id;sensor_type;location;lat;lon;timestamp;P1;durP1;ratioP1;P2;durP2;ratioP2
1523;SDS011;755;53.658;10.118;2022-11-25T00:09:36;44.40;;;16.67;;
1523;SDS011;755;53.658;10.118;2022-11-25T00:19:38;53.33;;;17.23;;
1523;SDS011;755;53.658;10.118;2022-11-25T00:29:42;39.83;;;17.60;;
1523;SDS011;755;53.658;10.118;2022-11-25T00:39:44;42.88;;;16.73;;
1523;SDS011;755;53.658;10.118;2022-11-25T00:49:48;37.30;;;16.75;;
1523;SDS011;755;53.658;10.118;2022-11-25T00:59:51;39.33;;;16.42;;
1523;SDS011;755;53.658;10.118;2022-11-25T01:09:54;41.60;;;16.95;;
1523;SDS011;755;53.658;10.118;2022-11-25T01:19:57;47.22;;;16.52;;
1523;SDS011;755;53.658;10.118;2022-11-25T01:30:00;53.03;;;18.13;;
1523;SDS011;755;53.658;10.118;2022-11-25T01:40:03;45.40;;;16.98;;
1523;SDS011;755;53.658;10.118;2022-11-25T01:50:08;62.85;;;18.77;;
1523;SDS011;755;53.658;10.118;2022-11-25T02:00:13;38.05;;;16.25;;
1523;SDS011;755;53.658;10.118;2022-11-25T02:10:18;51.38;;;17.77;;
1523;SDS011;755;53.658;10.118;2022-11-25T02:20:25;54.15;;;17.38;;
1523;SDS011;755;53.658;10.118;2022-11-25T02:30:28;58.50;;;19.73;;
1523;SDS011;755;53.658;10.118;2022-11-25T02:40:31;55.95;;;18.13;;
1523;SDS011;755;53.658;10.118;2022-11-25T02:50:37;43.22;;;17.63;;
1523;SDS011;755;53.658;10.118;2022-11-25T03:00:40;50.55;;;17.85;;
1523;SDS011;755;53.658;10.118;2022-11-25T03:10:45;49.00;;;16.92;;
1523;SDS011;755;53.658;10.118;2022-11-25T03:20:50;50.78;;;17.40;;
1523;SDS011;755;53.658;10.118;2022-11-25T03:30:54;53.13;;;18.35;;
1523;SDS011;755;53.658;10.118;2022-11-25T03:40:56;50.38;;;19.27;;
1523;SDS011;755;53.658;10.118;2022-11-25T03:50:59;56.67;;;20.08;;
1523;SDS011;755;53.658;10.118;2022-11-25T04:01:01;54.22;;;17.70;;
1523;SDS011;755;53.658;10.118;2022-11-25T04:11:05;55.67;;;20.05;;
1523;SDS011;755;53.658;10.118;2022-11-25T04:21:07;56.55;;;19.08;;
1523;SDS011;755;53.658;10.118;2022-11-25T04:31:11;46.40;;;16.63;;
1523;SDS011;755;53.658;10.118;2022-11-25T04:41:12;51.50;;;15.48;;
1523;SDS011;755;53.658;10.118;2022-11-25T04:51:16;57.88;;;16.67;;
1523;SDS011;755;53.658;10.118;2022-11-25T05:01:18;34.28;;;14.18;;
1523;SDS011;755;53.658;10.118;2022-11-25T05:11:21;41.75;;;14.85;;
1523;SDS011;755;53.658;10.118;2022-11-25T05:21:23;40.88;;;14.55;;
1523;SDS011;755;53.658;10.118;2022-11-25T05:31:26;39.08;;;13.90;;
1523;SDS011;755;53.658;10.118;2022-11-25T05:41:28;39.97;;;14.60;;
1523;SDS011;755;53.658;10.118;2022-11-25T05:51:31;43.88;;;15.10;;
1523;SDS011;755;53.658;10.118;2022-11-25T06:01:33;48.47;;;15.95;;
1523;SDS011;755;53.658;10.118;2022-11-25T06:11:37;46.25;;;14.73;;
1523;SDS011;755;53.658;10.118;2022-11-25T06:21:39;36.53;;;14.40;;
1523;SDS011;755;53.658;10.118;2022-11-25T06:31:42;36.75;;;13.40;;
1523;SDS011;755;53.658;10.118;2022-11-25T06:41:44;47.58;;;13.77;;
1523;SDS011;755;53.658;10.118;2022-11-25T06:51:49;42.83;;;13.45;;
1523;SDS011;755;53.658;10.118;2022-11-25T07:01:51;40.67;;;12.02;;
1523;SDS011;755;53.658;10.118;2022-11-25T07:11:54;31.23;;;11.77;;
1523;SDS011;755;53.658;10.118;2022-11-25T07:21:56;34.22;;;11.90;;
1523;SDS011;755;53.658;10.118;2022-11-25T07:31:59;37.45;;;11.45;;
1523;SDS011;755;53.658;10.118;2022-11-25T07:42:01;36.47;;;10.85;;
1523;SDS011;755;53.658;10.118;2022-11-25T07:52:04;37.17;;;11.52;;
1523;SDS011;755;53.658;10.118;2022-11-25T08:02:07;39.63;;;11.02;;
1523;SDS011;755;53.658;10.118;2022-11-25T08:12:11;31.75;;;11.35;;
1523;SDS011;755;53.658;10.118;2022-11-25T08:22:13;30.83;;;10.93;;
1523;SDS011;755;53.658;10.118;2022-11-25T08:32:16;34.80;;;11.55;;
1523;SDS011;755;53.658;10.118;2022-11-25T08:42:18;39.45;;;11.95;;
1523;SDS011;755;53.658;10.118;2022-11-25T08:52:25;58.08;;;12.90;;
1523;SDS011;755;53.658;10.118;2022-11-25T09:02:32;31.30;;;11.23;;
1523;SDS011;755;53.658;10.118;2022-11-25T09:12:39;53.30;;;11.77;;
1523;SDS011;755;53.658;10.118;2022-11-25T09:22:42;39.95;;;10.52;;
1523;SDS011;755;53.658;10.118;2022-11-25T09:32:47;31.13;;;9.75;;
1523;SDS011;755;53.658;10.118;2022-11-25T09:42:50;28.58;;;9.98;;
1523;SDS011;755;53.658;10.118;2022-11-25T09:53:40;53.03;;;12.27;;
1523;SDS011;755;53.658;10.118;2022-11-25T10:03:44;31.10;;;9.85;;
1523;SDS011;755;53.658;10.118;2022-11-25T10:13:53;39.00;;;11.27;;
1523;SDS011;755;53.658;10.118;2022-11-25T10:23:58;41.15;;;11.10;;
1523;SDS011;755;53.658;10.118;2022-11-25T10:34:03;42.75;;;8.98;;
1523;SDS011;755;53.658;10.118;2022-11-25T10:44:13;32.35;;;9.40;;
1523;SDS011;755;53.658;10.118;2022-11-25T10:54:25;48.38;;;10.52;;
1523;SDS011;755;53.658;10.118;2022-11-25T11:04:28;54.10;;;9.77;;
1523;SDS011;755;53.658;10.118;2022-11-25T11:14:31;50.50;;;10.15;;
1523;SDS011;755;53.658;10.118;2022-11-25T11:24:33;44.97;;;11.80;;
1523;SDS011;755;53.658;10.118;2022-11-25T11:34:44;46.28;;;12.40;;
1523;SDS011;755;53.658;10.118;2022-11-25T11:44:57;41.38;;;11.15;;
1523;SDS011;755;53.658;10.118;2022-11-25T11:55:16;54.63;;;12.45;;
1523;SDS011;755;53.658;10.118;2022-11-25T12:05:29;30.98;;;11.50;;
1523;SDS011;755;53.658;10.118;2022-11-25T12:15:38;42.10;;;12.57;;
1523;SDS011;755;53.658;10.118;2022-11-25T12:25:46;30.42;;;10.82;;
1523;SDS011;755;53.658;10.118;2022-11-25T12:35:57;53.72;;;13.57;;
1523;SDS011;755;53.658;10.118;2022-11-25T12:46:05;50.38;;;11.20;;
1523;SDS011;755;53.658;10.118;2022-11-25T12:56:15;49.38;;;11.82;;
1523;SDS011;755;53.658;10.118;2022-11-25T13:06:33;44.53;;;12.35;;
1523;SDS011;755;53.658;10.118;2022-11-25T13:16:54;34.50;;;12.57;;
1523;SDS011;755;53.658;10.118;2022-11-25T13:26:58;39.13;;;12.13;;
1523;SDS011;755;53.658;10.118;2022-11-25T13:37:33;39.50;;;11.85;;
1523;SDS011;755;53.658;10.118;2022-11-25T13:47:36;40.42;;;12.07;;
1523;SDS011;755;53.658;10.118;2022-11-25T13:57:41;33.20;;;12.35;;
1523;SDS011;755;53.658;10.118;2022-11-25T14:07:48;44.17;;;14.05;;
1523;SDS011;755;53.658;10.118;2022-11-25T14:18:06;31.95;;;14.15;;
1523;SDS011;755;53.658;10.118;2022-11-25T14:28:26;38.13;;;12.27;;
1523;SDS011;755;53.658;10.118;2022-11-25T14:38:36;31.63;;;11.63;;
1523;SDS011;755;53.658;10.118;2022-11-25T14:48:43;32.83;;;13.20;;
1523;SDS011;755;53.658;10.118;2022-11-25T14:58:54;47.13;;;15.10;;
1523;SDS011;755;53.658;10.118;2022-11-25T15:08:58;45.83;;;14.43;;
1523;SDS011;755;53.658;10.118;2022-11-25T15:19:02;45.42;;;14.90;;
1523;SDS011;755;53.658;10.118;2022-11-25T15:29:09;51.65;;;14.15;;
1523;SDS011;755;53.658;10.118;2022-11-25T15:39:14;43.40;;;13.77;;
1523;SDS011;755;53.658;10.118;2022-11-25T15:49:22;61.80;;;14.95;;
1523;SDS011;755;53.658;10.118;2022-11-25T16:09:50;44.03;;;15.45;;
1523;SDS011;755;53.658;10.118;2022-11-25T16:19:53;56.25;;;15.02;;
1523;SDS011;755;53.658;10.118;2022-11-25T16:29:56;44.17;;;17.42;;
1523;SDS011;755;53.658;10.118;2022-11-25T16:40:12;42.85;;;16.98;;
1523;SDS011;755;53.658;10.118;2022-11-25T16:50:15;57.75;;;18.85;;
1523;SDS011;755;53.658;10.118;2022-11-25T17:00:20;56.08;;;18.25;;
1523;SDS011;755;53.658;10.118;2022-11-25T17:10:22;47.92;;;19.27;;
1523;SDS011;755;53.658;10.118;2022-11-25T17:20:25;45.97;;;17.95;;
1523;SDS011;755;53.658;10.118;2022-11-25T17:30:28;54.58;;;18.42;;
1523;SDS011;755;53.658;10.118;2022-11-25T17:40:32;63.28;;;18.17;;
1523;SDS011;755;53.658;10.118;2022-11-25T17:50:35;46.90;;;18.85;;
1523;SDS011;755;53.658;10.118;2022-11-25T18:00:38;48.83;;;20.38;;
1523;SDS011;755;53.658;10.118;2022-11-25T18:10:43;61.33;;;22.45;;
1523;SDS011;755;53.658;10.118;2022-11-25T18:20:49;57.72;;;20.10;;
1523;SDS011;755;53.658;10.118;2022-11-25T18:30:57;64.68;;;21.05;;
1523;SDS011;755;53.658;10.118;2022-11-25T18:41:04;65.83;;;21.87;;
1523;SDS011;755;53.658;10.118;2022-11-25T18:51:08;61.45;;;22.67;;
1523;SDS011;755;53.658;10.118;2022-11-25T19:11:16;71.25;;;27.35;;
1523;SDS011;755;53.658;10.118;2022-11-25T19:31:26;79.75;;;27.15;;
1523;SDS011;755;53.658;10.118;2022-11-25T19:41:33;76.95;;;28.50;;
1523;SDS011;755;53.658;10.118;2022-11-25T19:51:35;85.07;;;28.88;;
1523;SDS011;755;53.658;10.118;2022-11-25T20:01:40;84.40;;;28.10;;
1523;SDS011;755;53.658;10.118;2022-11-25T20:11:45;79.57;;;25.88;;
1523;SDS011;755;53.658;10.118;2022-11-25T20:21:48;78.32;;;26.60;;
1523;SDS011;755;53.658;10.118;2022-11-25T20:31:50;99.30;;;27.95;;
1523;SDS011;755;53.658;10.118;2022-11-25T20:41:53;87.28;;;25.92;;
1523;SDS011;755;53.658;10.118;2022-11-25T20:51:55;87.20;;;25.83;;
1523;SDS011;755;53.658;10.118;2022-11-25T21:02:00;81.25;;;24.73;;
1523;SDS011;755;53.658;10.118;2022-11-25T21:12:02;68.70;;;24.45;;
1523;SDS011;755;53.658;10.118;2022-11-25T21:22:05;85.10;;;26.00;;
1523;SDS011;755;53.658;10.118;2022-11-25T21:32:16;73.70;;;22.67;;
1523;SDS011;755;53.658;10.118;2022-11-25T21:42:22;72.53;;;21.58;;
1523;SDS011;755;53.658;10.118;2022-11-25T21:52:25;65.88;;;22.05;;
1523;SDS011;755;53.658;10.118;2022-11-25T22:02:29;62.63;;;19.52;;
1523;SDS011;755;53.658;10.118;2022-11-25T22:12:31;80.85;;;21.33;;
1523;SDS011;755;53.658;10.118;2022-11-25T22:22:35;56.47;;;18.30;;
1523;SDS011;755;53.658;10.118;2022-11-25T22:32:37;52.13;;;18.17;;
1523;SDS011;755;53.658;10.118;2022-11-25T22:42:41;54.85;;;16.25;;
1523;SDS011;755;53.658;10.118;2022-11-25T22:52:46;67.80;;;15.63;;
1523;SDS011;755;53.658;10.118;2022-11-25T23:02:50;106.88;;;16.55;;
1523;SDS011;755;53.658;10.118;2022-11-25T23:12:55;65.53;;;15.07;;
1523;SDS011;755;53.658;10.118;2022-11-25T23:22:58;70.90;;;15.27;;
1523;SDS011;755;53.658;10.118;2022-11-25T23:33:06;57.13;;;13.95;;
1523;SDS011;755;53.658;10.118;2022-11-25T23:43:20;80.15;;;14.02;;
1523;SDS011;755;53.658;10.118;2022-11-25T23:53:23;151.48;;;18.63;;
